Time;durP1;ratioP1;P1;durP2;ratioP2;P2;SDS_P1;SDS_P2;PMS_P1;PMS_P2;Temp;Humidity;BMP_temperature;BMP_pressure;BME280_temperature;BME280_humidity;BME280_pressure;Samples;Min_cycle;Max_cycle;Signal;HPM_P1;HPM_P2
2023/06/23 00:01:16;;;;;;;13.38;9.05;;;17.60;99.90;;;;;;5012964;28;20048;-81
2023/06/23 00:03:43;;;;;;;11.77;7.60;;;17.60;99.90;;;;;;5013711;28;20053;-80
2023/06/23 00:06:09;;;;;;;11.68;8.60;;;17.60;99.90;;;;;;5014159;28;20378;-80
2023/06/23 00:08:35;;;;;;;13.65;8.63;;;17.60;99.90;;;;;;5013688;28;20064;-81
2023/06/23 00:11:01;;;;;;;15.77;9.65;;;17.60;99.90;;;;;;4997166;28;20061;-80
2023/06/23 00:13:27;;;;;;;16.00;8.88;;;17.60;99.90;;;;;;5013635;28;20053;-81
2023/06/23 00:15:53;;;;;;;16.85;9.13;;;17.60;99.90;;;;;;5013465;28;20046;-81
2023/06/23 00:18:20;;;;;;;12.93;8.50;;;17.60;99.90;;;;;;5013655;28;20423;-81
2023/06/23 00:20:46;;;;;;;13.60;8.70;;;17.60;99.90;;;;;;5014767;28;20103;-80
2023/06/23 00:23:13;;;;;;;13.32;8.55;;;17.60;99.90;;;;;;5013555;28;20448;-81
2023/06/23 00:25:39;;;;;;;12.00;8.57;;;17.60;99.90;;;;;;5014177;28;20041;-81
2023/06/23 00:28:04;;;;;;;15.68;8.90;;;17.60;99.90;;;;;;5014157;28;20119;-81
2023/06/23 00:30:30;;;;;;;17.23;8.95;;;17.60;99.90;;;;;;5012756;28;20049;-81
2023/06/23 00:32:56;;;;;;;13.32;8.57;;;17.60;99.90;;;;;;5013049;28;20512;-82
2023/06/23 00:35:22;;;;;;;17.08;9.25;;;17.60;99.90;;;;;;5012754;28;20042;-81
2023/06/23 00:37:47;;;;;;;16.80;9.80;;;17.60;99.90;;;;;;5012694;28;20053;-81
2023/06/23 00:40:15;;;;;;;15.52;9.35;;;17.60;99.90;;;;;;5013887;28;20148;-81
2023/06/23 00:42:52;;;;;;;12.68;8.65;;;17.70;99.90;;;;;;5014086;28;20060;-82
2023/06/23 00:45:19;;;;;;;13.98;8.98;;;17.60;99.90;;;;;;5012360;28;20052;-81
2023/06/23 00:47:45;;;;;;;14.73;9.07;;;17.60;99.90;;;;;;5013650;28;20130;-81
2023/06/23 02:03:44;;;;;;;18.67;10.15;;;17.50;99.90;;;;;;5087479;28;20170;-80
2023/06/23 02:06:11;;;;;;;17.70;10.88;;;17.50;99.90;;;;;;5073766;28;20048;-80
2023/06/23 02:08:39;;;;;;;16.95;9.48;;;17.60;99.90;;;;;;5073690;28;20055;-81
2023/06/23 02:11:06;;;;;;;16.73;9.32;;;17.60;99.90;;;;;;5073726;28;20075;-80
2023/06/23 02:13:32;;;;;;;19.77;10.82;;;17.60;99.90;;;;;;5073124;28;20062;-80
2023/06/23 02:16:00;;;;;;;16.02;10.15;;;17.60;99.90;;;;;;5091873;28;20055;-80
2023/06/23 02:18:27;;;;;;;13.88;10.30;;;17.60;99.90;;;;;;5091951;28;20067;-80
2023/06/23 02:20:54;;;;;;;16.92;10.77;;;17.60;99.90;;;;;;5074265;28;20048;-80
2023/06/23 02:23:21;;;;;;;15.73;9.65;;;17.70;99.90;;;;;;5073373;28;20083;-81
2023/06/23 02:25:48;;;;;;;23.70;11.05;;;17.60;99.90;;;;;;5090354;28;20095;-80
2023/06/23 02:28:14;;;;;;;17.98;10.93;;;17.60;99.90;;;;;;5090718;28;20078;-81
2023/06/23 02:30:41;;;;;;;18.80;10.93;;;17.50;99.90;;;;;;5090407;28;20056;-81
2023/06/23 02:33:07;;;;;;;16.35;10.55;;;17.60;99.90;;;;;;5073496;28;20496;-81
2023/06/23 02:35:33;;;;;;;15.93;10.38;;;17.60;99.90;;;;;;5091848;28;20180;-80
2023/06/23 02:38:04;;;;;;;14.63;9.82;;;17.60;99.90;;;;;;5073575;28;20083;-81
2023/06/23 02:40:33;;;;;;;13.93;9.98;;;17.50;99.90;;;;;;5073231;28;20410;-80
2023/06/23 02:43:05;;;;;;;16.83;10.45;;;17.50;99.90;;;;;;5073156;28;20435;-81
2023/06/23 02:45:36;;;;;;;16.85;10.27;;;17.50;99.90;;;;;;5073081;28;20060;-80
2023/06/23 02:48:04;;;;;;;15.30;10.93;;;17.50;99.90;;;;;;5091522;28;20052;-81
2023/06/23 02:50:33;;;;;;;15.68;10.07;;;17.50;99.90;;;;;;5074012;28;20059;-80
2023/06/23 02:53:04;;;;;;;15.13;10.50;;;17.50;99.90;;;;;;5091231;28;20123;-81
2023/06/23 02:55:35;;;;;;;16.70;9.88;;;17.40;99.90;;;;;;5091131;28;20094;-80
2023/06/23 02:58:04;;;;;;;16.67;9.57;;;17.40;99.90;;;;;;5091286;28;20056;-81
2023/06/23 03:00:31;;;;;;;14.15;10.32;;;17.50;99.90;;;;;;5091450;28;20088;-80
2023/06/23 03:03:00;;;;;;;15.02;10.55;;;17.50;99.90;;;;;;5090938;28;20760;-81
2023/06/23 03:05:28;;;;;;;16.02;9.38;;;17.50;99.90;;;;;;5089742;28;20056;-80
2023/06/23 03:07:54;;;;;;;12.20;8.68;;;17.40;99.90;;;;;;5072841;28;20541;-80
2023/06/23 03:10:20;;;;;;;14.82;8.98;;;17.40;99.90;;;;;;5072577;28;20047;-80
2023/06/23 03:12:47;;;;;;;15.10;9.48;;;17.40;99.90;;;;;;5090957;28;20052;-80
2023/06/23 03:15:14;;;;;;;14.07;9.77;;;17.40;99.90;;;;;;5091290;28;20134;-79
2023/06/23 03:17:40;;;;;;;12.70;8.82;;;17.40;99.90;;;;;;5089796;28;20047;-81
2023/06/23 03:20:09;;;;;;;13.95;9.48;;;17.30;99.90;;;;;;5089802;28;20052;-81
2023/06/23 03:22:42;;;;;;;14.73;9.73;;;17.30;99.90;;;;;;5073076;28;20220;-80
2023/06/23 03:25:14;;;;;;;15.95;9.75;;;17.40;99.90;;;;;;5089371;28;20083;-80
2023/06/23 03:27:41;;;;;;;11.68;9.05;;;17.30;99.90;;;;;;5072777;28;20056;-80
2023/06/23 03:30:26;;;;;;;15.80;9.63;;;17.40;99.90;;;;;;5072472;28;20052;-80
2023/06/23 03:32:57;;;;;;;17.83;10.15;;;17.30;99.90;;;;;;5090874;28;20051;-79
2023/06/23 03:35:26;;;;;;;15.20;10.48;;;17.30;99.90;;;;;;5090065;28;20074;-78
2023/06/23 03:37:59;;;;;;;15.63;10.98;;;17.30;99.90;;;;;;5089069;28;20537;-79
2023/06/23 03:40:29;;;;;;;18.45;10.45;;;17.30;99.90;;;;;;5090547;28;20047;-78
2023/06/23 03:43:02;;;;;;;19.15;11.75;;;17.30;99.90;;;;;;5090497;28;20106;-79
2023/06/23 03:45:29;;;;;;;22.30;10.82;;;17.30;99.90;;;;;;5072691;28;20056;-78
2023/06/23 03:48:06;;;;;;;16.85;11.40;;;17.30;99.90;;;;;;5090495;28;20060;-78
2023/06/23 03:50:37;;;;;;;15.88;11.38;;;17.30;99.90;;;;;;5090297;28;20059;-78
2023/06/23 03:53:05;;;;;;;16.67;11.30;;;17.30;99.90;;;;;;5089060;28;20081;-79
2023/06/23 03:55:36;;;;;;;19.52;12.00;;;17.30;99.90;;;;;;5088968;28;20129;-78
2023/06/23 03:58:06;;;;;;;17.92;11.30;;;17.30;99.90;;;;;;5090425;28;20328;-78
2023/06/23 04:00:35;;;;;;;17.05;11.38;;;17.30;99.90;;;;;;5072192;28;20063;-78
2023/06/23 04:03:07;;;;;;;20.50;12.80;;;17.20;99.90;;;;;;5071903;28;20506;-78
2023/06/23 04:05:35;;;;;;;19.43;12.07;;;17.30;99.90;;;;;;5071806;28;20117;-78
2023/06/23 04:08:03;;;;;;;24.23;12.30;;;17.20;99.90;;;;;;5088824;28;20386;-78
2023/06/23 04:10:30;;;;;;;20.08;12.65;;;17.30;99.90;;;;;;5089047;28;20372;-77
2023/06/23 04:12:57;;;;;;;19.77;11.77;;;17.30;99.90;;;;;;5071770;28;20048;-78
2023/06/23 04:15:26;;;;;;;20.55;11.93;;;17.20;99.90;;;;;;5088698;28;20567;-78
2023/06/23 04:17:54;;;;;;;20.40;11.25;;;17.20;99.90;;;;;;5071902;28;20437;-78
2023/06/23 04:20:23;;;;;;;17.15;11.45;;;17.30;99.90;;;;;;5090241;28;20122;-78
2023/06/23 04:22:49;;;;;;;20.10;11.52;;;17.30;99.90;;;;;;5071528;28;20499;-78
2023/06/23 04:25:19;;;;;;;16.08;10.60;;;17.30;99.90;;;;;;5088441;28;20044;-78
2023/06/23 04:27:47;;;;;;;22.27;12.40;;;17.30;99.90;;;;;;5088724;28;20402;-78
2023/06/23 04:30:14;;;;;;;17.35;11.27;;;17.30;99.90;;;;;;5089835;28;20044;-78
2023/06/23 04:32:42;;;;;;;18.25;11.40;;;17.30;99.90;;;;;;5090203;28;20131;-78
2023/06/23 04:35:08;;;;;;;17.23;11.35;;;17.30;99.90;;;;;;5071655;28;20048;-78
2023/06/23 04:37:38;;;;;;;18.17;10.75;;;17.30;99.90;;;;;;5089837;28;20048;-78
2023/06/23 04:40:10;;;;;;;19.15;11.55;;;17.30;99.90;;;;;;5071574;28;20040;-77
2023/06/23 04:42:47;;;;;;;15.02;10.73;;;17.30;99.90;;;;;;5089816;28;20059;-78
2023/06/23 04:45:20;;;;;;;19.65;9.95;;;17.30;99.90;;;;;;5089737;28;20380;-78
2023/06/23 04:48:01;;;;;;;16.27;10.95;;;17.30;99.90;;;;;;5074936;28;20050;-78
2023/06/23 04:50:32;;;;;;;15.10;9.77;;;17.30;99.90;;;;;;5074690;28;20052;-77
2023/06/23 04:53:05;;;;;;;17.35;9.70;;;17.30;99.90;;;;;;5076636;28;20505;-78
2023/06/23 04:55:33;;;;;;;17.23;10.35;;;17.30;99.90;;;;;;5073685;28;20052;-78
2023/06/23 04:58:02;;;;;;;16.15;10.80;;;17.30;99.90;;;;;;5093323;28;20044;-78
2023/06/23 05:00:29;;;;;;;13.82;9.63;;;17.30;99.90;;;;;;5077059;28;20390;-78
2023/06/23 05:02:58;;;;;;;15.50;10.27;;;17.30;99.90;;;;;;5072504;28;20435;-77
2023/06/23 05:05:27;;;;;;;13.63;9.93;;;17.30;99.90;;;;;;5072325;28;20097;-77
2023/06/23 05:07:54;;;;;;;17.80;10.27;;;17.30;99.90;;;;;;5073030;28;20075;-77
2023/06/23 05:10:22;;;;;;;17.02;9.68;;;17.30;99.90;;;;;;5072973;28;20066;-78
2023/06/23 05:12:51;;;;;;;16.98;9.80;;;17.30;99.90;;;;;;5072407;28;20132;-77
2023/06/23 05:15:19;;;;;;;15.50;10.63;;;17.30;99.90;;;;;;5070997;28;20131;-77
2023/06/23 05:17:49;;;;;;;16.10;10.23;;;17.30;99.90;;;;;;5072613;28;20054;-77
2023/06/23 05:20:19;;;;;;;16.38;10.10;;;17.30;99.90;;;;;;5072577;28;20059;-78
2023/06/23 05:22:46;;;;;;;16.30;10.75;;;17.30;99.90;;;;;;5054255;28;20063;-78
2023/06/23 05:25:14;;;;;;;16.08;10.02;;;17.40;99.90;;;;;;5054331;28;20539;-78
2023/06/23 05:27:45;;;;;;;14.50;10.38;;;17.40;99.90;;;;;;5054129;28;20083;-77
2023/06/23 05:30:17;;;;;;;13.27;9.47;;;17.40;99.90;;;;;;5072579;28;20060;-78
2023/06/23 05:32:44;;;;;;;18.63;11.48;;;17.40;99.90;;;;;;5070848;28;20059;-78
2023/06/23 05:35:11;;;;;;;15.70;10.25;;;17.40;99.90;;;;;;5070930;28;20071;-78
2023/06/23 05:37:38;;;;;;;17.52;10.57;;;17.40;99.90;;;;;;5054433;28;20115;-78
2023/06/23 05:40:06;;;;;;;15.20;9.77;;;17.50;99.90;;;;;;5072263;28;20048;-78
2023/06/23 05:42:35;;;;;;;16.60;9.88;;;17.40;99.90;;;;;;5072096;28;20064;-77
2023/06/23 05:45:04;;;;;;;11.68;8.60;;;17.50;99.90;;;;;;5072099;28;20480;-78
2023/06/23 05:48:04;;;;;;;17.42;10.10;;;17.50;99.90;;;;;;5054197;28;20158;-78
2023/06/23 05:50:38;;;;;;;13.50;9.05;;;17.50;99.90;;;;;;5072405;28;20055;-78
2023/06/23 05:53:10;;;;;;;15.45;10.40;;;17.50;99.90;;;;;;5054243;28;20402;-78
2023/06/23 05:55:44;;;;;;;15.20;9.18;;;17.50;99.90;;;;;;5054116;28;20060;-78
2023/06/23 05:58:12;;;;;;;12.90;9.55;;;17.50;99.90;;;;;;5071403;28;20048;-78
2023/06/23 06:00:45;;;;;;;16.55;9.93;;;17.60;99.90;;;;;;5037707;28;20140;-78
2023/06/23 06:03:14;;;;;;;14.73;9.30;;;17.50;99.90;;;;;;5053547;28;20128;-78
2023/06/23 06:05:45;;;;;;;15.40;9.85;;;17.60;99.90;;;;;;5071963;28;20131;-77
2023/06/23 06:08:12;;;;;;;17.95;10.25;;;17.60;99.90;;;;;;5053672;28;20045;-78
2023/06/23 06:10:40;;;;;;;14.40;9.40;;;17.60;99.90;;;;;;5071446;28;20106;-71
2023/06/23 06:13:07;;;;;;;14.00;9.88;;;17.60;99.90;;;;;;5070834;28;20048;-71
2023/06/23 06:15:34;;;;;;;15.82;9.02;;;17.60;99.90;;;;;;5070975;28;20162;-70
2023/06/23 06:18:04;;;;;;;15.63;9.43;;;17.60;99.90;;;;;;5071082;28;20408;-75
2023/06/23 06:20:32;;;;;;;14.43;10.02;;;17.70;99.90;;;;;;5071397;28;20040;-76
2023/06/23 06:22:59;;;;;;;19.50;9.70;;;17.70;99.90;;;;;;5070067;28;20079;-77
2023/06/23 06:25:26;;;;;;;13.10;8.80;;;17.70;99.90;;;;;;5052112;28;20057;-76
2023/06/23 06:27:53;;;;;;;12.55;9.35;;;17.80;99.90;;;;;;5093806;28;20192;-77
2023/06/23 06:30:21;;;;;;;13.25;9.27;;;17.80;99.90;;;;;;5078245;28;20112;-76
2023/06/23 06:32:49;;;;;;;17.40;9.15;;;17.90;99.90;;;;;;5078070;28;20075;-77
2023/06/23 06:35:15;;;;;;;18.60;10.65;;;17.90;99.90;;;;;;5077705;28;20117;-77
2023/06/23 06:37:47;;;;;;;17.40;9.63;;;18.10;99.90;;;;;;5096151;28;20060;-77
2023/06/23 06:40:19;;;;;;;15.38;9.48;;;18.20;99.90;;;;;;5096304;28;20059;-77
2023/06/23 06:42:45;;;;;;;15.50;9.45;;;18.20;99.90;;;;;;5076066;28;20097;-76
2023/06/23 06:45:11;;;;;;;15.25;9.40;;;18.50;99.90;;;;;;5072723;28;20506;-76
2023/06/23 06:47:42;;;;;;;17.55;10.43;;;18.60;99.90;;;;;;5072405;28;20105;-77
2023/06/23 06:50:10;;;;;;;14.43;7.55;;;18.70;99.90;;;;;;5072648;28;20062;-76
2023/06/23 06:52:39;;;;;;;13.55;9.50;;;18.80;99.90;;;;;;5072483;28;20164;-77
2023/06/23 06:55:05;;;;;;;12.55;8.18;;;19.00;99.90;;;;;;5072711;28;20048;-76
2023/06/23 06:57:33;;;;;;;17.35;8.93;;;19.00;99.90;;;;;;5067874;28;20146;-76
2023/06/23 06:59:58;;;;;;;12.27;7.50;;;19.20;99.90;;;;;;5086639;28;20056;-77
2023/06/23 07:02:25;;;;;;;15.18;7.78;;;19.30;99.90;;;;;;5088698;28;20123;-78
2023/06/23 07:04:52;;;;;;;9.82;7.35;;;19.40;99.90;;;;;;5090935;28;20055;-77
2023/06/23 07:07:20;;;;;;;11.82;7.60;;;19.40;99.90;;;;;;5090418;28;20040;-77
2023/06/23 07:09:46;;;;;;;10.85;6.95;;;19.60;99.90;;;;;;5090127;28;20155;-77
2023/06/23 07:12:12;;;;;;;10.32;6.10;;;19.60;99.90;;;;;;5086403;28;20215;-77
2023/06/23 07:14:37;;;;;;;11.93;7.05;;;19.70;99.90;;;;;;5068808;28;20387;-78
2023/06/23 07:17:03;;;;;;;12.02;6.70;;;19.80;99.90;;;;;;5068610;28;20072;-77
2023/06/23 07:19:29;;;;;;;11.20;5.78;;;19.90;99.90;;;;;;5052420;28;20061;-78
2023/06/23 07:21:55;;;;;;;9.48;6.22;;;20.00;99.90;;;;;;5070230;28;20598;-78
2023/06/23 07:24:20;;;;;;;9.88;5.03;;;20.00;99.90;;;;;;5068671;28;20209;-78
2023/06/23 07:26:46;;;;;;;13.88;6.82;;;20.20;99.90;;;;;;5068813;28;20060;-79
2023/06/23 07:29:12;;;;;;;12.20;6.07;;;20.30;99.90;;;;;;5069201;28;20085;-79
2023/06/23 07:31:38;;;;;;;12.05;6.40;;;20.30;99.90;;;;;;5068806;28;20443;-80
2023/06/23 07:34:04;;;;;;;14.20;6.13;;;20.50;99.90;;;;;;5066949;28;20059;-79
2023/06/23 07:36:30;;;;;;;10.95;6.13;;;20.50;99.90;;;;;;5071897;28;20050;-78
2023/06/23 07:38:55;;;;;;;9.38;5.53;;;20.60;99.90;;;;;;5071869;28;20051;-78
2023/06/23 07:41:21;;;;;;;10.63;5.97;;;20.70;99.90;;;;;;5071700;28;20426;-78
2023/06/23 07:43:47;;;;;;;12.27;5.85;;;20.70;99.90;;;;;;5071072;28;20151;-79
2023/06/23 07:46:13;;;;;;;12.77;5.60;;;20.70;99.90;;;;;;5071769;28;20055;-79
2023/06/23 07:48:38;;;;;;;7.65;5.18;;;20.80;99.90;;;;;;5071789;28;20056;-79
2023/06/23 07:51:04;;;;;;;10.02;5.60;;;20.90;99.90;;;;;;5071490;28;20075;-80
2023/06/23 07:53:30;;;;;;;10.15;5.63;;;21.00;99.90;;;;;;5070773;28;20058;-78
2023/06/23 07:55:55;;;;;;;11.20;5.43;;;21.10;99.90;;;;;;5089554;28;20098;-79
2023/06/23 07:58:21;;;;;;;7.75;5.13;;;21.00;99.90;;;;;;5087357;28;20151;-79
2023/06/23 08:00:47;;;;;;;16.85;5.40;;;21.20;99.90;;;;;;5071550;28;20054;-84
2023/06/23 08:03:13;;;;;;;8.30;4.85;;;21.30;99.90;;;;;;5070484;28;20100;-80
2023/06/23 08:05:38;;;;;;;9.27;5.03;;;21.40;99.90;;;;;;5089451;28;20056;-79
2023/06/23 08:08:05;;;;;;;7.80;4.95;;;21.40;99.90;;;;;;5068527;28;20058;-80
2023/06/23 08:10:31;;;;;;;5.65;4.50;;;21.40;99.90;;;;;;5071648;28;20402;-79
2023/06/23 08:12:56;;;;;;;6.88;4.72;;;21.40;99.90;;;;;;5071787;28;20051;-81
2023/06/23 08:15:22;;;;;;;6.53;5.15;;;21.40;99.90;;;;;;5089574;28;20758;-82
2023/06/23 08:17:48;;;;;;;6.80;4.13;;;21.50;99.90;;;;;;5071189;28;20125;-81
2023/06/23 08:20:14;;;;;;;5.43;4.45;;;21.60;99.90;;;;;;5071625;28;20081;-82
2023/06/23 08:22:40;;;;;;;8.00;4.95;;;21.70;99.90;;;;;;5076075;28;20123;-82
2023/06/23 08:25:07;;;;;;;7.38;5.00;;;21.80;99.90;;;;;;5094293;28;20147;-83
2023/06/23 08:27:33;;;;;;;6.20;4.47;;;21.90;99.90;;;;;;5094326;28;20524;-83
2023/06/23 08:29:59;;;;;;;11.13;4.30;;;22.00;99.90;;;;;;5076279;28;20126;-83
2023/06/23 08:32:24;;;;;;;6.57;4.50;;;21.90;99.90;;;;;;5093857;28;20487;-82
2023/06/23 08:34:50;;;;;;;8.57;4.65;;;22.00;99.90;;;;;;5059095;28;20163;-82
2023/06/23 08:37:16;;;;;;;10.85;5.05;;;22.10;99.90;;;;;;5076150;28;20055;-83
2023/06/23 08:39:42;;;;;;;7.35;4.88;;;22.10;99.90;;;;;;5091649;28;20048;-82
2023/06/23 08:42:07;;;;;;;9.07;5.43;;;22.10;99.90;;;;;;5074397;28;20483;-86
2023/06/23 08:44:37;;;;;;;6.65;4.78;;;22.10;99.90;;;;;;5074233;28;20130;-75
2023/06/23 08:47:04;;;;;;;7.35;5.22;;;22.30;99.90;;;;;;5092786;28;20177;-75
2023/06/23 08:49:35;;;;;;;7.15;4.70;;;22.40;99.90;;;;;;5093101;28;20047;-75
2023/06/23 08:52:01;;;;;;;10.05;5.35;;;22.40;99.90;;;;;;5093145;28;20052;-75
2023/06/23 08:54:28;;;;;;;5.75;4.57;;;22.40;99.90;;;;;;5074521;28;20062;-74
2023/06/23 08:56:54;;;;;;;5.60;3.97;;;22.60;99.90;;;;;;5092661;28;20044;-75
2023/06/23 08:59:20;;;;;;;6.82;4.82;;;22.70;99.90;;;;;;5092990;28;20404;-75
2023/06/23 09:01:46;;;;;;;5.95;4.20;;;22.70;99.90;;;;;;5093001;28;20625;-76
2023/06/23 09:04:12;;;;;;;6.60;4.88;;;22.90;99.90;;;;;;5069526;28;20095;-75
2023/06/23 09:06:38;;;;;;;5.18;3.92;;;22.90;99.90;;;;;;5054513;28;20048;-75
2023/06/23 09:09:03;;;;;;;6.35;4.03;;;22.90;99.90;;;;;;5072334;28;20452;-74
2023/06/23 09:11:30;;;;;;;5.50;3.83;;;23.00;99.90;;;;;;5071868;28;20106;-75
2023/06/23 09:13:57;;;;;;;4.43;3.45;;;23.00;99.90;;;;;;5072723;28;20049;-75
2023/06/23 09:16:23;;;;;;;4.63;4.13;;;23.10;99.90;;;;;;5072681;28;20056;-75
2023/06/23 09:18:51;;;;;;;5.00;3.10;;;23.20;99.90;;;;;;5054470;28;20049;-76
2023/06/23 09:21:18;;;;;;;5.72;3.47;;;23.30;99.90;;;;;;5054495;28;20529;-75
2023/06/23 09:24:03;;;;;;;5.93;3.65;;;23.30;99.90;;;;;;5072316;28;20045;-76
2023/06/23 09:26:49;;;;;;;5.47;3.25;;;23.40;99.90;;;;;;5072466;28;20420;-75
2023/06/23 09:29:15;;;;;;;4.05;2.92;;;23.40;99.90;;;;;;5053891;28;20052;-75
2023/06/23 09:31:41;;;;;;;5.03;3.40;;;23.50;99.90;;;;;;5072008;28;20049;-75
2023/06/23 09:34:07;;;;;;;5.20;2.90;;;23.50;99.90;;;;;;5072609;28;20049;-76
2023/06/23 09:36:33;;;;;;;4.07;3.20;;;23.60;99.90;;;;;;5071912;28;20049;-71
2023/06/23 09:39:01;;;;;;;4.00;3.50;;;23.50;99.90;;;;;;5054278;28;20133;-72
2023/06/23 09:41:31;;;;;;;4.05;3.28;;;23.60;99.90;;;;;;5071759;28;20107;-72
2023/06/23 09:43:58;;;;;;;5.22;3.40;;;23.60;99.90;;;;;;5071452;28;20053;-71
2023/06/23 09:46:27;;;;;;;5.60;3.58;;;23.70;99.90;;;;;;5071910;28;20461;-71
2023/06/23 09:48:53;;;;;;;6.65;3.28;;;23.60;99.90;;;;;;5053590;28;20060;-72
2023/06/23 09:51:20;;;;;;;7.78;3.90;;;23.60;99.90;;;;;;5053701;28;20060;-72
2023/06/23 09:53:47;;;;;;;3.90;3.22;;;23.70;99.90;;;;;;5071698;28;20076;-72
2023/06/23 09:56:15;;;;;;;7.80;3.67;;;23.80;99.90;;;;;;5071569;28;20361;-72
2023/06/23 09:58:43;;;;;;;3.88;3.40;;;23.80;99.90;;;;;;5071299;28;20063;-71
2023/06/23 10:01:13;;;;;;;4.10;3.30;;;23.90;99.90;;;;;;5071536;28;20119;-71
2023/06/23 10:03:43;;;;;;;4.63;2.90;;;23.90;99.90;;;;;;5071350;28;20040;-71
2023/06/23 10:06:32;;;;;;;6.40;3.47;;;23.90;99.90;;;;;;5071438;28;20448;-71
2023/06/23 10:09:05;;;;;;;5.55;2.80;;;24.00;99.90;;;;;;5071114;28;20056;-71
2023/06/23 10:11:35;;;;;;;5.82;3.33;;;24.00;99.90;;;;;;5070909;28;20040;-71
2023/06/23 10:14:06;;;;;;;5.70;3.60;;;24.00;99.90;;;;;;5070969;28;20051;-71
2023/06/23 10:16:34;;;;;;;5.55;3.90;;;24.10;99.90;;;;;;5071274;28;20051;-72
2023/06/23 10:19:00;;;;;;;4.15;2.85;;;24.10;99.90;;;;;;5059121;28;20051;-72
2023/06/23 10:21:26;;;;;;;4.68;2.90;;;24.10;99.90;;;;;;5091240;28;20398;-74
2023/06/23 10:24:01;;;;;;;5.50;3.10;;;24.20;99.90;;;;;;5072519;28;20048;-70
2023/06/23 10:26:31;;;;;;;4.03;3.03;;;24.40;99.90;;;;;;5091174;28;20130;-70
2023/06/23 10:28:58;;;;;;;4.43;2.90;;;24.50;99.90;;;;;;5091053;28;20071;-70
2023/06/23 10:31:29;;;;;;;5.50;3.33;;;24.50;99.90;;;;;;5090864;28;20097;-75
2023/06/23 10:33:58;;;;;;;6.15;3.33;;;24.50;99.90;;;;;;5090812;28;20048;-75
2023/06/23 10:36:24;;;;;;;6.00;3.67;;;24.40;99.90;;;;;;5072505;28;20075;-70
2023/06/23 10:38:54;;;;;;;5.50;3.50;;;24.50;99.90;;;;;;5090464;28;20036;-71
2023/06/23 10:41:21;;;;;;;5.15;2.97;;;24.50;99.90;;;;;;5090715;28;20062;-70
2023/06/23 10:43:51;;;;;;;4.13;3.22;;;24.70;99.90;;;;;;5089857;28;20087;-71
2023/06/23 10:46:17;;;;;;;3.05;2.60;;;24.70;99.90;;;;;;5090655;28;20091;-71
2023/06/23 10:48:44;;;;;;;4.00;2.45;;;24.60;99.90;;;;;;5090385;28;20036;-71
2023/06/23 10:51:13;;;;;;;3.58;2.58;;;24.70;99.90;;;;;;5090342;28;20048;-70
2023/06/23 10:54:07;;;;;;;5.97;3.03;;;24.80;99.90;;;;;;5090248;28;20051;-71
2023/06/23 10:56:39;;;;;;;4.88;3.22;;;24.90;99.90;;;;;;5090251;28;20098;-71
2023/06/23 10:59:27;;;;;;;3.90;2.67;;;24.90;99.90;;;;;;5082852;28;20051;-70
2023/06/23 11:02:04;;;;;;;3.17;2.55;;;25.00;99.90;;;;;;5090705;28;20044;-71
2023/06/23 11:04:31;;;;;;;4.22;2.63;;;24.90;99.90;;;;;;5090087;28;20060;-71
2023/06/23 11:07:08;;;;;;;4.25;2.80;;;24.90;99.90;;;;;;5072212;28;20078;-71
2023/06/23 11:10:01;;;;;;;4.07;2.92;;;24.90;99.90;;;;;;5089913;28;20047;-71
2023/06/23 11:12:39;;;;;;;4.55;3.17;;;25.00;99.90;;;;;;5072098;28;20406;-71
2023/06/23 11:15:08;;;;;;;4.55;2.90;;;25.20;99.90;;;;;;5090966;28;20050;-71
2023/06/23 11:17:49;;;;;;;3.15;2.80;;;25.20;99.90;;;;;;5090580;28;20060;-71
2023/06/23 11:20:24;;;;;;;3.70;3.17;;;25.10;99.90;;;;;;5090461;28;20392;-70
2023/06/23 11:23:16;;;;;;;4.40;2.92;;;25.10;99.90;;;;;;5090075;28;20055;-71
2023/06/23 11:25:48;;;;;;;5.68;3.28;;;25.20;99.90;;;;;;5086475;28;20059;-70
2023/06/23 11:28:35;;;;;;;9.88;3.30;;;25.20;99.90;;;;;;5090046;28;20055;-70
2023/06/23 11:31:04;;;;;;;4.57;2.83;;;25.20;99.90;;;;;;5071797;28;20055;-70
2023/06/23 11:33:32;;;;;;;4.22;3.08;;;25.10;99.90;;;;;;5089987;28;20052;-71
2023/06/23 11:36:19;;;;;;;3.47;2.97;;;25.10;99.90;;;;;;5089816;28;20047;-70
2023/06/23 11:38:45;;;;;;;3.80;3.10;;;25.20;99.90;;;;;;5089831;28;20093;-70
2023/06/23 11:41:15;;;;;;;5.07;3.10;;;25.30;99.90;;;;;;5090109;28;20159;-70
2023/06/23 11:43:45;;;;;;;3.92;2.50;;;25.30;99.90;;;;;;5089578;28;20048;-71
2023/06/23 11:46:15;;;;;;;3.58;2.53;;;25.40;99.90;;;;;;5071446;28;20059;-70
2023/06/23 11:48:42;;;;;;;4.30;3.13;;;25.40;99.90;;;;;;5089698;28;20052;-71
2023/06/23 11:51:12;;;;;;;4.72;2.40;;;25.40;99.90;;;;;;5089620;28;20063;-70
2023/06/23 11:53:41;;;;;;;4.55;2.90;;;25.50;99.90;;;;;;5089821;28;20075;-71
2023/06/23 11:56:08;;;;;;;4.18;2.78;;;25.50;99.90;;;;;;5091423;28;20109;-70
2023/06/23 11:58:35;;;;;;;5.25;2.20;;;25.60;99.90;;;;;;5093957;28;20399;-71
2023/06/23 12:01:02;;;;;;;6.35;2.70;;;25.60;99.90;;;;;;5094209;28;20456;-71
2023/06/23 12:03:35;;;;;;;5.20;3.35;;;25.70;99.90;;;;;;5093660;28;20056;-74
2023/06/23 12:06:02;;;;;;;3.58;2.80;;;25.80;99.90;;;;;;5093752;28;20509;-71
2023/06/23 12:08:28;;;;;;;4.38;2.72;;;25.80;99.90;;;;;;5093627;28;20048;-71
2023/06/23 12:10:54;;;;;;;2.63;2.33;;;25.80;99.90;;;;;;5075017;28;20063;-71
2023/06/23 12:13:20;;;;;;;3.83;2.30;;;25.90;99.90;;;;;;5092951;28;20044;-71
2023/06/23 12:15:46;;;;;;;3.45;2.33;;;26.00;99.90;;;;;;5092778;28;20048;-71
2023/06/23 12:18:12;;;;;;;5.60;2.17;;;26.00;99.90;;;;;;5074490;28;20062;-71
2023/06/23 12:20:40;;;;;;;4.97;2.78;;;26.10;99.90;;;;;;5074403;28;20052;-71
2023/06/23 12:23:06;;;;;;;5.03;2.35;;;26.10;99.90;;;;;;5093188;28;20036;-71
2023/06/23 12:25:39;;;;;;;2.63;2.20;;;26.10;99.90;;;;;;5092794;28;20071;-71
2023/06/23 12:28:05;;;;;;;3.13;2.15;;;26.10;99.90;;;;;;5090983;28;20040;-71
2023/06/23 12:30:44;;;;;;;5.55;2.30;;;26.10;99.90;;;;;;5092836;28;20097;-71
2023/06/23 12:33:19;;;;;;;3.83;2.20;;;26.00;98.60;;;;;;5091534;28;20040;-71
2023/06/23 12:35:58;;;;;;;3.45;1.85;;;26.00;99.80;;;;;;5090647;28;20040;-71
2023/06/23 12:38:24;;;;;;;5.07;2.30;;;26.20;99.40;;;;;;5090848;28;20397;-71
2023/06/23 12:40:51;;;;;;;4.43;2.10;;;26.10;98.70;;;;;;5092799;28;20039;-70
2023/06/23 12:43:18;;;;;;;6.65;2.33;;;26.10;99.80;;;;;;5092780;28;20063;-71
2023/06/23 12:45:46;;;;;;;3.67;2.17;;;26.30;99.70;;;;;;5092793;28;20462;-71
2023/06/23 12:48:12;;;;;;;3.28;2.47;;;26.40;99.80;;;;;;5093223;28;20105;-71
2023/06/23 12:50:41;;;;;;;3.40;2.53;;;26.30;99.70;;;;;;5092939;28;20048;-71
2023/06/23 12:53:08;;;;;;;5.10;2.55;;;26.30;99.40;;;;;;5093138;28;20444;-71
2023/06/23 12:55:34;;;;;;;4.68;2.63;;;26.40;99.70;;;;;;5092694;28;20078;-70
2023/06/23 12:57:59;;;;;;;4.10;2.63;;;26.40;99.50;;;;;;5092781;28;20071;-71
2023/06/23 13:00:26;;;;;;;6.13;2.70;;;26.30;99.80;;;;;;5074885;28;20040;-71
2023/06/23 13:02:53;;;;;;;3.58;2.47;;;26.30;99.50;;;;;;5092957;28;20052;-71
2023/06/23 13:05:20;;;;;;;4.07;2.20;;;26.40;98.80;;;;;;5092221;28;20129;-71
2023/06/23 13:07:46;;;;;;;4.50;2.67;;;26.40;99.00;;;;;;5092322;28;20036;-71
2023/06/23 13:10:12;;;;;;;4.80;2.03;;;26.40;98.00;;;;;;5092641;28;20074;-70
2023/06/23 13:12:38;;;;;;;2.80;2.17;;;26.40;97.70;;;;;;5092429;28;20044;-71
2023/06/23 13:15:05;;;;;;;3.25;2.40;;;26.20;97.60;;;;;;5092210;28;20060;-71
2023/06/23 13:17:32;;;;;;;3.28;2.38;;;26.20;97.70;;;;;;5092528;28;20463;-71
2023/06/23 13:19:58;;;;;;;2.95;2.65;;;26.20;97.90;;;;;;5092402;28;20056;-71
2023/06/23 13:22:24;;;;;;;3.67;2.53;;;26.30;97.60;;;;;;5092114;28;20064;-71
2023/06/23 13:24:50;;;;;;;3.70;2.78;;;26.00;97.40;;;;;;5092211;28;20116;-71
2023/06/23 13:27:16;;;;;;;4.97;2.38;;;26.10;97.50;;;;;;5073894;28;20052;-71
2023/06/23 13:29:42;;;;;;;3.20;2.40;;;26.40;98.20;;;;;;5092245;28;20047;-71
2023/06/23 13:32:08;;;;;;;5.10;2.33;;;26.20;97.80;;;;;;5092269;28;20048;-71
2023/06/23 13:34:36;;;;;;;3.75;2.70;;;26.30;97.90;;;;;;5091790;28;20392;-71
2023/06/23 13:37:05;;;;;;;5.63;2.80;;;26.40;97.90;;;;;;5091873;28;20125;-71
2023/06/23 13:39:31;;;;;;;2.80;2.40;;;26.40;97.80;;;;;;5091852;28;20052;-71
2023/06/23 13:41:56;;;;;;;4.68;2.38;;;26.50;98.00;;;;;;5092073;28;20048;-71
2023/06/23 13:44:22;;;;;;;5.10;3.00;;;26.50;98.00;;;;;;5091942;28;20044;-71
2023/06/23 13:46:48;;;;;;;4.65;2.80;;;26.40;97.90;;;;;;5091835;28;20039;-71
2023/06/23 13:49:14;;;;;;;6.20;2.90;;;26.50;98.10;;;;;;5091510;28;20075;-71
2023/06/23 13:51:40;;;;;;;2.90;2.40;;;26.50;98.00;;;;;;5091874;28;20086;-71
2023/06/23 13:54:06;;;;;;;4.75;2.80;;;26.50;98.10;;;;;;5091608;28;20075;-71
2023/06/23 13:56:32;;;;;;;3.30;2.67;;;26.60;97.80;;;;;;5073202;28;20052;-71
2023/06/23 13:58:59;;;;;;;4.47;2.67;;;26.60;97.90;;;;;;5091572;28;20410;-71
2023/06/23 14:01:25;;;;;;;3.50;2.40;;;26.70;98.50;;;;;;5091010;28;20040;-71